sensor_id;sensor_type;location;lat;lon;timestamp;P1;durP1;ratioP1;P2;durP2;ratioP2
75820;SDS011;64454;51.984;9.838;2023-02-15T00:01:40;10.90;;;7.22;;
75820;SDS011;64454;51.984;9.838;2023-02-15T00:04:09;11.13;;;6.45;;
75820;SDS011;64454;51.984;9.838;2023-02-15T00:06:40;10.55;;;7.75;;
75820;SDS011;64454;51.984;9.838;2023-02-15T00:09:08;10.77;;;7.10;;
75820;SDS011;64454;51.984;9.838;2023-02-15T00:11:35;9.38;;;7.32;;
75820;SDS011;64454;51.984;9.838;2023-02-15T00:14:06;11.75;;;8.00;;
75820;SDS011;64454;51.984;9.838;2023-02-15T00:16:36;8.57;;;6.93;;
75820;SDS011;64454;51.984;9.838;2023-02-15T00:19:04;10.90;;;7.05;;
75820;SDS011;64454;51.984;9.838;2023-02-15T00:21:34;10.43;;;7.03;;
75820;SDS011;64454;51.984;9.838;2023-02-15T00:24:03;10.05;;;7.35;;
75820;SDS011;64454;51.984;9.838;2023-02-15T00:26:33;9.63;;;7.63;;
75820;SDS011;64454;51.984;9.838;2023-02-15T00:29:00;10.82;;;7.10;;
75820;SDS011;64454;51.984;9.838;2023-02-15T00:31:27;10.85;;;8.00;;
75820;SDS011;64454;51.984;9.838;2023-02-15T00:34:00;11.73;;;8.10;;
75820;SDS011;64454;51.984;9.838;2023-02-15T00:36:28;10.82;;;8.40;;
75820;SDS011;64454;51.984;9.838;2023-02-15T00:38:57;9.50;;;7.18;;
75820;SDS011;64454;51.984;9.838;2023-02-15T00:41:24;11.43;;;8.27;;
75820;SDS011;64454;51.984;9.838;2023-02-15T00:43:51;14.77;;;8.82;;
75820;SDS011;64454;51.984;9.838;2023-02-15T00:46:17;11.23;;;8.52;;
75820;SDS011;64454;51.984;9.838;2023-02-15T00:48:44;12.52;;;8.77;;
75820;SDS011;64454;51.984;9.838;2023-02-15T00:51:11;11.18;;;7.53;;
75820;SDS011;64454;51.984;9.838;2023-02-15T00:53:38;12.35;;;8.50;;
75820;SDS011;64454;51.984;9.838;2023-02-15T00:56:06;14.60;;;9.20;;
75820;SDS011;64454;51.984;9.838;2023-02-15T00:58:33;10.50;;;8.10;;
75820;SDS011;64454;51.984;9.838;2023-02-15T01:01:02;11.90;;;8.87;;
75820;SDS011;64454;51.984;9.838;2023-02-15T01:03:31;12.02;;;8.30;;
75820;SDS011;64454;51.984;9.838;2023-02-15T01:05:58;11.98;;;8.50;;
75820;SDS011;64454;51.984;9.838;2023-02-15T01:08:25;10.93;;;8.05;;
75820;SDS011;64454;51.984;9.838;2023-02-15T01:10:53;10.38;;;7.28;;
75820;SDS011;64454;51.984;9.838;2023-02-15T01:13:21;10.65;;;7.72;;
75820;SDS011;64454;51.984;9.838;2023-02-15T01:15:52;10.20;;;7.68;;
75820;SDS011;64454;51.984;9.838;2023-02-15T01:18:20;11.03;;;7.43;;
75820;SDS011;64454;51.984;9.838;2023-02-15T01:20:47;12.07;;;7.85;;
75820;SDS011;64454;51.984;9.838;2023-02-15T01:23:15;10.30;;;7.70;;
75820;SDS011;64454;51.984;9.838;2023-02-15T01:25:42;10.68;;;7.60;;
75820;SDS011;64454;51.984;9.838;2023-02-15T01:28:09;10.87;;;8.00;;
75820;SDS011;64454;51.984;9.838;2023-02-15T01:30:37;11.68;;;7.97;;
75820;SDS011;64454;51.984;9.838;2023-02-15T01:33:04;12.17;;;8.07;;
75820;SDS011;64454;51.984;9.838;2023-02-15T01:35:32;12.53;;;7.53;;
75820;SDS011;64454;51.984;9.838;2023-02-15T01:37:58;13.10;;;8.80;;
75820;SDS011;64454;51.984;9.838;2023-02-15T01:40:25;11.13;;;7.30;;
75820;SDS011;64454;51.984;9.838;2023-02-15T01:42:52;11.65;;;7.60;;
75820;SDS011;64454;51.984;9.838;2023-02-15T01:45:22;13.15;;;8.70;;
75820;SDS011;64454;51.984;9.838;2023-02-15T01:47:54;11.93;;;8.30;;
75820;SDS011;64454;51.984;9.838;2023-02-15T01:50:27;11.68;;;8.25;;
75820;SDS011;64454;51.984;9.838;2023-02-15T01:53:01;13.07;;;8.75;;
75820;SDS011;64454;51.984;9.838;2023-02-15T01:55:39;11.43;;;8.20;;
75820;SDS011;64454;51.984;9.838;2023-02-15T01:58:13;12.63;;;8.60;;
75820;SDS011;64454;51.984;9.838;2023-02-15T02:00:41;12.80;;;8.23;;
75820;SDS011;64454;51.984;9.838;2023-02-15T02:03:11;11.55;;;8.10;;
75820;SDS011;64454;51.984;9.838;2023-02-15T02:05:38;12.30;;;8.02;;
75820;SDS011;64454;51.984;9.838;2023-02-15T02:08:07;13.70;;;9.05;;
75820;SDS011;64454;51.984;9.838;2023-02-15T02:10:35;10.80;;;8.27;;
75820;SDS011;64454;51.984;9.838;2023-02-15T02:13:03;11.32;;;8.48;;
75820;SDS011;64454;51.984;9.838;2023-02-15T02:15:34;11.88;;;8.60;;
75820;SDS011;64454;51.984;9.838;2023-02-15T02:18:18;11.77;;;8.13;;
75820;SDS011;64454;51.984;9.838;2023-02-15T02:21:05;10.35;;;7.90;;
75820;SDS011;64454;51.984;9.838;2023-02-15T02:24:29;11.82;;;8.15;;
75820;SDS011;64454;51.984;9.838;2023-02-15T02:27:32;13.85;;;8.82;;
75820;SDS011;64454;51.984;9.838;2023-02-15T02:30:27;13.70;;;9.25;;
75820;SDS011;64454;51.984;9.838;2023-02-15T02:33:38;11.48;;;8.45;;
75820;SDS011;64454;51.984;9.838;2023-02-15T02:36:21;14.10;;;9.68;;
75820;SDS011;64454;51.984;9.838;2023-02-15T02:39:06;11.55;;;8.27;;
75820;SDS011;64454;51.984;9.838;2023-02-15T02:41:50;14.00;;;9.05;;
75820;SDS011;64454;51.984;9.838;2023-02-15T02:44:25;13.95;;;9.52;;
75820;SDS011;64454;51.984;9.838;2023-02-15T02:46:57;13.07;;;9.00;;
75820;SDS011;64454;51.984;9.838;2023-02-15T02:49:32;14.65;;;9.65;;
75820;SDS011;64454;51.984;9.838;2023-02-15T02:52:02;14.95;;;9.82;;
75820;SDS011;64454;51.984;9.838;2023-02-15T02:54:32;13.03;;;8.47;;
75820;SDS011;64454;51.984;9.838;2023-02-15T02:57:02;12.70;;;9.40;;
75820;SDS011;64454;51.984;9.838;2023-02-15T02:59:35;12.77;;;9.15;;
75820;SDS011;64454;51.984;9.838;2023-02-15T03:02:10;14.75;;;9.55;;
75820;SDS011;64454;51.984;9.838;2023-02-15T03:04:45;16.40;;;10.18;;
75820;SDS011;64454;51.984;9.838;2023-02-15T03:07:23;14.98;;;10.18;;
75820;SDS011;64454;51.984;9.838;2023-02-15T03:09:55;15.80;;;10.30;;
75820;SDS011;64454;51.984;9.838;2023-02-15T03:12:26;14.75;;;10.45;;
75820;SDS011;64454;51.984;9.838;2023-02-15T03:14:58;14.93;;;10.57;;
75820;SDS011;64454;51.984;9.838;2023-02-15T03:17:31;17.17;;;11.35;;
75820;SDS011;64454;51.984;9.838;2023-02-15T03:20:03;15.93;;;10.55;;
75820;SDS011;64454;51.984;9.838;2023-02-15T03:22:36;16.63;;;11.30;;
75820;SDS011;64454;51.984;9.838;2023-02-15T03:25:09;17.05;;;11.30;;
75820;SDS011;64454;51.984;9.838;2023-02-15T03:27:43;16.08;;;10.75;;
75820;SDS011;64454;51.984;9.838;2023-02-15T03:30:15;17.02;;;10.85;;
75820;SDS011;64454;51.984;9.838;2023-02-15T03:32:48;16.20;;;10.25;;
75820;SDS011;64454;51.984;9.838;2023-02-15T03:35:18;15.57;;;10.63;;
75820;SDS011;64454;51.984;9.838;2023-02-15T03:37:49;16.48;;;10.50;;
75820;SDS011;64454;51.984;9.838;2023-02-15T03:40:22;18.33;;;11.40;;
75820;SDS011;64454;51.984;9.838;2023-02-15T03:43:14;15.15;;;10.55;;
75820;SDS011;64454;51.984;9.838;2023-02-15T03:45:49;15.13;;;10.13;;
75820;SDS011;64454;51.984;9.838;2023-02-15T03:48:23;17.10;;;11.60;;
75820;SDS011;64454;51.984;9.838;2023-02-15T03:50:56;16.58;;;10.82;;
75820;SDS011;64454;51.984;9.838;2023-02-15T03:53:46;16.08;;;10.65;;
75820;SDS011;64454;51.984;9.838;2023-02-15T03:56:15;14.70;;;9.70;;
75820;SDS011;64454;51.984;9.838;2023-02-15T03:58:41;15.20;;;10.80;;
75820;SDS011;64454;51.984;9.838;2023-02-15T04:01:27;15.40;;;10.70;;
75820;SDS011;64454;51.984;9.838;2023-02-15T04:04:19;16.42;;;10.98;;
75820;SDS011;64454;51.984;9.838;2023-02-15T04:06:51;15.18;;;9.73;;
75820;SDS011;64454;51.984;9.838;2023-02-15T04:09:19;16.35;;;10.20;;
75820;SDS011;64454;51.984;9.838;2023-02-15T04:12:05;14.85;;;10.48;;
75820;SDS011;64454;51.984;9.838;2023-02-15T04:14:32;16.53;;;11.07;;
75820;SDS011;64454;51.984;9.838;2023-02-15T04:17:16;15.05;;;10.25;;
75820;SDS011;64454;51.984;9.838;2023-02-15T04:19:43;14.55;;;10.45;;
75820;SDS011;64454;51.984;9.838;2023-02-15T04:22:28;16.85;;;10.98;;
75820;SDS011;64454;51.984;9.838;2023-02-15T04:25:13;15.90;;;10.55;;
75820;SDS011;64454;51.984;9.838;2023-02-15T04:27:40;15.18;;;10.85;;
75820;SDS011;64454;51.984;9.838;2023-02-15T04:30:10;14.75;;;9.88;;
75820;SDS011;64454;51.984;9.838;2023-02-15T04:32:39;16.73;;;10.70;;
75820;SDS011;64454;51.984;9.838;2023-02-15T04:35:07;15.03;;;9.93;;
75820;SDS011;64454;51.984;9.838;2023-02-15T04:37:35;14.85;;;9.40;;
75820;SDS011;64454;51.984;9.838;2023-02-15T04:40:04;13.95;;;10.10;;
75820;SDS011;64454;51.984;9.838;2023-02-15T04:42:33;12.60;;;9.93;;
75820;SDS011;64454;51.984;9.838;2023-02-15T04:45:00;13.60;;;9.75;;
75820;SDS011;64454;51.984;9.838;2023-02-15T04:47:27;16.20;;;10.10;;
75820;SDS011;64454;51.984;9.838;2023-02-15T04:49:54;11.93;;;8.82;;
75820;SDS011;64454;51.984;9.838;2023-02-15T04:52:21;12.77;;;9.50;;
75820;SDS011;64454;51.984;9.838;2023-02-15T04:54:49;12.50;;;9.10;;
75820;SDS011;64454;51.984;9.838;2023-02-15T04:57:16;13.37;;;9.37;;
75820;SDS011;64454;51.984;9.838;2023-02-15T04:59:43;14.80;;;9.95;;
75820;SDS011;64454;51.984;9.838;2023-02-15T05:02:10;14.75;;;9.43;;
75820;SDS011;64454;51.984;9.838;2023-02-15T05:04:36;12.57;;;9.35;;
75820;SDS011;64454;51.984;9.838;2023-02-15T05:07:03;13.30;;;8.98;;
75820;SDS011;64454;51.984;9.838;2023-02-15T05:09:30;13.60;;;9.35;;
75820;SDS011;64454;51.984;9.838;2023-02-15T05:11:58;13.15;;;9.63;;
75820;SDS011;64454;51.984;9.838;2023-02-15T05:14:25;13.90;;;9.05;;
75820;SDS011;64454;51.984;9.838;2023-02-15T05:16:52;13.17;;;9.07;;
75820;SDS011;64454;51.984;9.838;2023-02-15T05:19:19;12.20;;;8.82;;
75820;SDS011;64454;51.984;9.838;2023-02-15T05:21:49;14.47;;;9.30;;
75820;SDS011;64454;51.984;9.838;2023-02-15T05:24:16;12.53;;;9.20;;
75820;SDS011;64454;51.984;9.838;2023-02-15T05:27:02;12.50;;;8.95;;
75820;SDS011;64454;51.984;9.838;2023-02-15T05:29:47;14.20;;;9.32;;
75820;SDS011;64454;51.984;9.838;2023-02-15T05:32:14;15.27;;;9.93;;
75820;SDS011;64454;51.984;9.838;2023-02-15T05:34:41;14.50;;;9.60;;
75820;SDS011;64454;51.984;9.838;2023-02-15T05:37:08;15.48;;;10.40;;
75820;SDS011;64454;51.984;9.838;2023-02-15T05:39:35;15.38;;;9.63;;
75820;SDS011;64454;51.984;9.838;2023-02-15T05:42:03;13.27;;;8.82;;
75820;SDS011;64454;51.984;9.838;2023-02-15T05:44:30;11.88;;;8.23;;
75820;SDS011;64454;51.984;9.838;2023-02-15T05:46:57;14.18;;;9.35;;
75820;SDS011;64454;51.984;9.838;2023-02-15T05:49:23;13.45;;;9.15;;
75820;SDS011;64454;51.984;9.838;2023-02-15T05:51:50;13.25;;;9.32;;
75820;SDS011;64454;51.984;9.838;2023-02-15T05:54:18;13.07;;;8.77;;
75820;SDS011;64454;51.984;9.838;2023-02-15T05:56:46;14.35;;;9.32;;
75820;SDS011;64454;51.984;9.838;2023-02-15T05:59:15;13.80;;;9.38;;
75820;SDS011;64454;51.984;9.838;2023-02-15T06:01:45;13.52;;;8.57;;
75820;SDS011;64454;51.984;9.838;2023-02-15T06:04:12;15.50;;;9.10;;
75820;SDS011;64454;51.984;9.838;2023-02-15T06:06:39;19.00;;;12.10;;
75820;SDS011;64454;51.984;9.838;2023-02-15T06:09:06;18.80;;;12.00;;
75820;SDS011;64454;51.984;9.838;2023-02-15T06:11:33;19.60;;;13.25;;
75820;SDS011;64454;51.984;9.838;2023-02-15T06:13:59;17.73;;;12.57;;
75820;SDS011;64454;51.984;9.838;2023-02-15T06:16:28;17.20;;;11.35;;
75820;SDS011;64454;51.984;9.838;2023-02-15T06:18:55;13.90;;;9.02;;
75820;SDS011;64454;51.984;9.838;2023-02-15T06:21:22;14.82;;;9.27;;
75820;SDS011;64454;51.984;9.838;2023-02-15T06:23:48;14.18;;;10.40;;
75820;SDS011;64454;51.984;9.838;2023-02-15T06:26:15;14.88;;;10.20;;
75820;SDS011;64454;51.984;9.838;2023-02-15T06:28:42;13.23;;;9.00;;
75820;SDS011;64454;51.984;9.838;2023-02-15T06:31:09;13.00;;;9.15;;
75820;SDS011;64454;51.984;9.838;2023-02-15T06:33:37;14.20;;;9.50;;
75820;SDS011;64454;51.984;9.838;2023-02-15T06:36:04;12.52;;;8.70;;
75820;SDS011;64454;51.984;9.838;2023-02-15T06:38:31;14.25;;;9.18;;
75820;SDS011;64454;51.984;9.838;2023-02-15T06:40:58;11.47;;;8.47;;
75820;SDS011;64454;51.984;9.838;2023-02-15T06:43:25;10.45;;;7.50;;
75820;SDS011;64454;51.984;9.838;2023-02-15T06:45:51;15.27;;;8.75;;
75820;SDS011;64454;51.984;9.838;2023-02-15T06:48:18;11.98;;;7.80;;
75820;SDS011;64454;51.984;9.838;2023-02-15T06:50:46;14.25;;;8.32;;
75820;SDS011;64454;51.984;9.838;2023-02-15T06:53:14;13.50;;;9.05;;
75820;SDS011;64454;51.984;9.838;2023-02-15T06:55:40;13.60;;;8.93;;
75820;SDS011;64454;51.984;9.838;2023-02-15T06:58:07;11.00;;;7.72;;
75820;SDS011;64454;51.984;9.838;2023-02-15T07:00:34;14.75;;;9.63;;
75820;SDS011;64454;51.984;9.838;2023-02-15T07:03:01;13.95;;;9.85;;
75820;SDS011;64454;51.984;9.838;2023-02-15T07:05:28;14.13;;;9.38;;
75820;SDS011;64454;51.984;9.838;2023-02-15T07:08:01;16.02;;;8.93;;
75820;SDS011;64454;51.984;9.838;2023-02-15T07:10:28;14.27;;;9.40;;
75820;SDS011;64454;51.984;9.838;2023-02-15T07:12:55;13.70;;;8.90;;
75820;SDS011;64454;51.984;9.838;2023-02-15T07:15:21;14.80;;;9.32;;
75820;SDS011;64454;51.984;9.838;2023-02-15T07:17:48;15.02;;;9.07;;
75820;SDS011;64454;51.984;9.838;2023-02-15T07:20:17;16.50;;;9.98;;
75820;SDS011;64454;51.984;9.838;2023-02-15T07:22:46;13.30;;;9.27;;
75820;SDS011;64454;51.984;9.838;2023-02-15T07:25:15;14.27;;;9.60;;
75820;SDS011;64454;51.984;9.838;2023-02-15T07:27:43;14.13;;;9.40;;
75820;SDS011;64454;51.984;9.838;2023-02-15T07:30:11;13.68;;;8.80;;
75820;SDS011;64454;51.984;9.838;2023-02-15T07:32:41;14.80;;;9.07;;
75820;SDS011;64454;51.984;9.838;2023-02-15T07:35:22;14.02;;;9.07;;
75820;SDS011;64454;51.984;9.838;2023-02-15T07:37:49;14.87;;;10.13;;
75820;SDS011;64454;51.984;9.838;2023-02-15T07:40:19;14.77;;;9.45;;
75820;SDS011;64454;51.984;9.838;2023-02-15T07:42:48;13.55;;;8.90;;
75820;SDS011;64454;51.984;9.838;2023-02-15T07:45:17;16.17;;;10.35;;
75820;SDS011;64454;51.984;9.838;2023-02-15T07:47:44;17.52;;;11.55;;
75820;SDS011;64454;51.984;9.838;2023-02-15T07:50:11;17.70;;;11.20;;
75820;SDS011;64454;51.984;9.838;2023-02-15T07:52:37;15.25;;;9.30;;
75820;SDS011;64454;51.984;9.838;2023-02-15T07:55:05;12.57;;;8.77;;
75820;SDS011;64454;51.984;9.838;2023-02-15T07:57:35;16.73;;;10.20;;
75820;SDS011;64454;51.984;9.838;2023-02-15T08:00:02;12.53;;;8.40;;
75820;SDS011;64454;51.984;9.838;2023-02-15T08:02:29;13.60;;;8.65;;
75820;SDS011;64454;51.984;9.838;2023-02-15T08:04:56;14.23;;;8.60;;
75820;SDS011;64454;51.984;9.838;2023-02-15T08:07:23;11.95;;;7.63;;
75820;SDS011;64454;51.984;9.838;2023-02-15T08:09:50;11.93;;;7.57;;
75820;SDS011;64454;51.984;9.838;2023-02-15T08:12:17;11.52;;;7.65;;
75820;SDS011;64454;51.984;9.838;2023-02-15T08:14:45;12.10;;;8.10;;
75820;SDS011;64454;51.984;9.838;2023-02-15T08:17:12;9.80;;;7.30;;
75820;SDS011;64454;51.984;9.838;2023-02-15T08:19:38;13.00;;;8.70;;
75820;SDS011;64454;51.984;9.838;2023-02-15T08:22:06;11.05;;;8.23;;
75820;SDS011;64454;51.984;9.838;2023-02-15T08:24:37;10.77;;;7.93;;
75820;SDS011;64454;51.984;9.838;2023-02-15T08:27:05;17.30;;;10.80;;
75820;SDS011;64454;51.984;9.838;2023-02-15T08:29:35;14.50;;;9.85;;
75820;SDS011;64454;51.984;9.838;2023-02-15T08:32:05;10.63;;;8.57;;
75820;SDS011;64454;51.984;9.838;2023-02-15T08:34:37;10.32;;;7.90;;
75820;SDS011;64454;51.984;9.838;2023-02-15T08:37:07;11.15;;;8.13;;
75820;SDS011;64454;51.984;9.838;2023-02-15T08:39:34;12.25;;;8.52;;
75820;SDS011;64454;51.984;9.838;2023-02-15T08:42:01;12.37;;;8.33;;
75820;SDS011;64454;51.984;9.838;2023-02-15T08:44:28;13.70;;;7.90;;
75820;SDS011;64454;51.984;9.838;2023-02-15T08:46:55;10.52;;;7.60;;
75820;SDS011;64454;51.984;9.838;2023-02-15T08:49:28;11.52;;;8.63;;
75820;SDS011;64454;51.984;9.838;2023-02-15T08:51:55;12.63;;;8.35;;
75820;SDS011;64454;51.984;9.838;2023-02-15T08:54:22;11.95;;;8.25;;
75820;SDS011;64454;51.984;9.838;2023-02-15T08:56:49;12.10;;;8.40;;
75820;SDS011;64454;51.984;9.838;2023-02-15T08:59:17;14.80;;;7.10;;
75820;SDS011;64454;51.984;9.838;2023-02-15T09:01:47;11.95;;;8.40;;
75820;SDS011;64454;51.984;9.838;2023-02-15T09:04:16;11.32;;;8.20;;
75820;SDS011;64454;51.984;9.838;2023-02-15T09:06:47;11.43;;;7.72;;
75820;SDS011;64454;51.984;9.838;2023-02-15T09:09:16;9.68;;;7.03;;
75820;SDS011;64454;51.984;9.838;2023-02-15T09:11:45;11.27;;;8.25;;
75820;SDS011;64454;51.984;9.838;2023-02-15T09:14:15;15.27;;;11.55;;
75820;SDS011;64454;51.984;9.838;2023-02-15T09:16:46;13.07;;;8.55;;
75820;SDS011;64454;51.984;9.838;2023-02-15T09:19:17;10.60;;;7.65;;
75820;SDS011;64454;51.984;9.838;2023-02-15T09:21:48;14.70;;;9.98;;
75820;SDS011;64454;51.984;9.838;2023-02-15T09:24:16;25.70;;;16.52;;
75820;SDS011;64454;51.984;9.838;2023-02-15T09:26:45;16.38;;;10.85;;
75820;SDS011;64454;51.984;9.838;2023-02-15T09:29:14;12.15;;;9.48;;
75820;SDS011;64454;51.984;9.838;2023-02-15T09:31:45;13.25;;;10.13;;
75820;SDS011;64454;51.984;9.838;2023-02-15T09:34:15;11.55;;;9.43;;
75820;SDS011;64454;51.984;9.838;2023-02-15T09:36:45;11.73;;;9.27;;
75820;SDS011;64454;51.984;9.838;2023-02-15T09:39:15;12.85;;;10.68;;
75820;SDS011;64454;51.984;9.838;2023-02-15T09:41:49;27.77;;;21.75;;
75820;SDS011;64454;51.984;9.838;2023-02-15T09:45:00;42.95;;;33.05;;
75820;SDS011;64454;51.984;9.838;2023-02-15T09:47:59;8.07;;;6.93;;
75820;SDS011;64454;51.984;9.838;2023-02-15T09:50:57;11.27;;;9.95;;
75820;SDS011;64454;51.984;9.838;2023-02-15T09:53:47;8.88;;;7.43;;
75820;SDS011;64454;51.984;9.838;2023-02-15T09:56:38;8.27;;;7.22;;
75820;SDS011;64454;51.984;9.838;2023-02-15T09:59:14;11.65;;;10.45;;
75820;SDS011;64454;51.984;9.838;2023-02-15T10:01:56;8.38;;;6.70;;
75820;SDS011;64454;51.984;9.838;2023-02-15T10:04:45;8.13;;;7.30;;
75820;SDS011;64454;51.984;9.838;2023-02-15T10:07:34;8.30;;;6.85;;
75820;SDS011;64454;51.984;9.838;2023-02-15T10:10:36;7.57;;;6.30;;
75820;SDS011;64454;51.984;9.838;2023-02-15T10:13:18;8.43;;;6.90;;
75820;SDS011;64454;51.984;9.838;2023-02-15T10:16:06;7.97;;;6.57;;
75820;SDS011;64454;51.984;9.838;2023-02-15T10:18:53;8.60;;;7.10;;
75820;SDS011;64454;51.984;9.838;2023-02-15T10:21:36;8.33;;;6.90;;
75820;SDS011;64454;51.984;9.838;2023-02-15T10:27:26;7.28;;;6.20;;
75820;SDS011;64454;51.984;9.838;2023-02-15T10:30:05;9.27;;;6.70;;
75820;SDS011;64454;51.984;9.838;2023-02-15T10:32:37;7.82;;;6.38;;
75820;SDS011;64454;51.984;9.838;2023-02-15T10:35:20;7.43;;;6.45;;
75820;SDS011;64454;51.984;9.838;2023-02-15T10:38:01;8.23;;;7.32;;
75820;SDS011;64454;51.984;9.838;2023-02-15T10:40:43;7.55;;;6.70;;
75820;SDS011;64454;51.984;9.838;2023-02-15T10:43:27;7.50;;;6.70;;
75820;SDS011;64454;51.984;9.838;2023-02-15T10:46:27;7.75;;;6.95;;
75820;SDS011;64454;51.984;9.838;2023-02-15T10:49:26;7.32;;;6.50;;
75820;SDS011;64454;51.984;9.838;2023-02-15T10:52:19;8.23;;;6.72;;
75820;SDS011;64454;51.984;9.838;2023-02-15T10:55:02;9.30;;;7.95;;
75820;SDS011;64454;51.984;9.838;2023-02-15T10:57:43;8.23;;;7.30;;
75820;SDS011;64454;51.984;9.838;2023-02-15T11:00:23;8.45;;;7.05;;
75820;SDS011;64454;51.984;9.838;2023-02-15T11:03:14;8.00;;;7.07;;
75820;SDS011;64454;51.984;9.838;2023-02-15T11:06:00;7.70;;;6.90;;
75820;SDS011;64454;51.984;9.838;2023-02-15T11:08:35;9.60;;;7.50;;
75820;SDS011;64454;51.984;9.838;2023-02-15T11:11:09;8.60;;;7.07;;
75820;SDS011;64454;51.984;9.838;2023-02-15T11:13:43;10.48;;;7.45;;
75820;SDS011;64454;51.984;9.838;2023-02-15T11:16:16;9.43;;;7.15;;
75820;SDS011;64454;51.984;9.838;2023-02-15T11:18:50;8.43;;;7.40;;
75820;SDS011;64454;51.984;9.838;2023-02-15T11:21:22;10.40;;;7.70;;
75820;SDS011;64454;51.984;9.838;2023-02-15T11:23:54;10.05;;;7.75;;
75820;SDS011;64454;51.984;9.838;2023-02-15T11:26:21;10.77;;;7.88;;
75820;SDS011;64454;51.984;9.838;2023-02-15T11:28:58;9.48;;;7.65;;
75820;SDS011;64454;51.984;9.838;2023-02-15T11:31:34;10.60;;;7.80;;
75820;SDS011;64454;51.984;9.838;2023-02-15T11:34:13;10.27;;;7.97;;
75820;SDS011;64454;51.984;9.838;2023-02-15T11:36:52;10.20;;;7.40;;
75820;SDS011;64454;51.984;9.838;2023-02-15T11:39:24;11.00;;;8.27;;
75820;SDS011;64454;51.984;9.838;2023-02-15T11:41:57;9.37;;;7.67;;
75820;SDS011;64454;51.984;9.838;2023-02-15T11:44:31;11.30;;;8.30;;
75820;SDS011;64454;51.984;9.838;2023-02-15T11:47:07;9.40;;;7.13;;
75820;SDS011;64454;51.984;9.838;2023-02-15T11:49:38;10.65;;;7.72;;
75820;SDS011;64454;51.984;9.838;2023-02-15T11:52:06;10.80;;;8.00;;
75820;SDS011;64454;51.984;9.838;2023-02-15T11:54:39;10.25;;;8.00;;
75820;SDS011;64454;51.984;9.838;2023-02-15T11:57:11;9.65;;;7.72;;
75820;SDS011;64454;51.984;9.838;2023-02-15T11:59:44;9.52;;;7.95;;
75820;SDS011;64454;51.984;9.838;2023-02-15T12:02:19;11.38;;;8.20;;
75820;SDS011;64454;51.984;9.838;2023-02-15T12:04:51;9.98;;;8.10;;
75820;SDS011;64454;51.984;9.838;2023-02-15T12:07:23;9.60;;;7.75;;
75820;SDS011;64454;51.984;9.838;2023-02-15T12:09:55;12.27;;;8.93;;
75820;SDS011;64454;51.984;9.838;2023-02-15T12:12:32;10.35;;;8.30;;
75820;SDS011;64454;51.984;9.838;2023-02-15T12:15:02;10.13;;;8.15;;
75820;SDS011;64454;51.984;9.838;2023-02-15T12:17:32;9.50;;;7.80;;
75820;SDS011;64454;51.984;9.838;2023-02-15T12:20:06;9.85;;;7.65;;
75820;SDS011;64454;51.984;9.838;2023-02-15T12:22:50;11.27;;;7.70;;
75820;SDS011;64454;51.984;9.838;2023-02-15T12:25:28;10.70;;;8.13;;
75820;SDS011;64454;51.984;9.838;2023-02-15T12:28:01;11.20;;;8.15;;
75820;SDS011;64454;51.984;9.838;2023-02-15T12:30:30;8.20;;;7.07;;
75820;SDS011;64454;51.984;9.838;2023-02-15T12:33:03;10.65;;;8.38;;
75820;SDS011;64454;51.984;9.838;2023-02-15T12:35:43;12.25;;;8.60;;
75820;SDS011;64454;51.984;9.838;2023-02-15T12:38:19;11.10;;;7.70;;
75820;SDS011;64454;51.984;9.838;2023-02-15T12:40:56;9.35;;;7.75;;
75820;SDS011;64454;51.984;9.838;2023-02-15T12:43:26;10.30;;;7.35;;
75820;SDS011;64454;51.984;9.838;2023-02-15T12:46:12;9.80;;;8.00;;
75820;SDS011;64454;51.984;9.838;2023-02-15T12:48:46;10.55;;;8.05;;
75820;SDS011;64454;51.984;9.838;2023-02-15T12:51:36;9.80;;;7.60;;
75820;SDS011;64454;51.984;9.838;2023-02-15T12:54:21;9.48;;;7.70;;
75820;SDS011;64454;51.984;9.838;2023-02-15T12:56:57;9.85;;;8.20;;
75820;SDS011;64454;51.984;9.838;2023-02-15T12:59:24;9.98;;;7.70;;
75820;SDS011;64454;51.984;9.838;2023-02-15T13:01:52;9.55;;;7.40;;
75820;SDS011;64454;51.984;9.838;2023-02-15T13:04:23;9.63;;;8.07;;
75820;SDS011;64454;51.984;9.838;2023-02-15T13:06:56;9.40;;;7.90;;
75820;SDS011;64454;51.984;9.838;2023-02-15T13:09:35;8.63;;;7.72;;
75820;SDS011;64454;51.984;9.838;2023-02-15T13:12:09;9.07;;;7.63;;
75820;SDS011;64454;51.984;9.838;2023-02-15T13:14:44;8.75;;;7.60;;
75820;SDS011;64454;51.984;9.838;2023-02-15T13:17:16;9.65;;;7.95;;
75820;SDS011;64454;51.984;9.838;2023-02-15T13:19:49;10.60;;;7.83;;
75820;SDS011;64454;51.984;9.838;2023-02-15T13:22:21;10.10;;;8.00;;
75820;SDS011;64454;51.984;9.838;2023-02-15T13:24:55;8.15;;;7.22;;
75820;SDS011;64454;51.984;9.838;2023-02-15T13:27:28;8.07;;;7.18;;
75820;SDS011;64454;51.984;9.838;2023-02-15T13:30:09;10.10;;;7.50;;
75820;SDS011;64454;51.984;9.838;2023-02-15T13:32:48;8.30;;;7.13;;
75820;SDS011;64454;51.984;9.838;2023-02-15T13:35:19;8.87;;;7.47;;
75820;SDS011;64454;51.984;9.838;2023-02-15T13:37:53;10.88;;;7.70;;
75820;SDS011;64454;51.984;9.838;2023-02-15T13:40:47;8.35;;;7.50;;
75820;SDS011;64454;51.984;9.838;2023-02-15T13:43:25;8.50;;;7.60;;
75820;SDS011;64454;51.984;9.838;2023-02-15T13:46:10;8.68;;;7.20;;
75820;SDS011;64454;51.984;9.838;2023-02-15T13:48:51;8.25;;;7.05;;
75820;SDS011;64454;51.984;9.838;2023-02-15T13:51:30;8.52;;;7.50;;
75820;SDS011;64454;51.984;9.838;2023-02-15T13:54:20;9.70;;;7.70;;
75820;SDS011;64454;51.984;9.838;2023-02-15T13:57:05;9.07;;;7.78;;
75820;SDS011;64454;51.984;9.838;2023-02-15T13:59:59;8.23;;;7.30;;
75820;SDS011;64454;51.984;9.838;2023-02-15T14:02:44;10.23;;;8.63;;
75820;SDS011;64454;51.984;9.838;2023-02-15T14:06:00;9.13;;;7.97;;
75820;SDS011;64454;51.984;9.838;2023-02-15T14:08:46;8.00;;;7.20;;
75820;SDS011;64454;51.984;9.838;2023-02-15T14:11:30;8.07;;;7.00;;
75820;SDS011;64454;51.984;9.838;2023-02-15T14:14:22;8.83;;;6.93;;
75820;SDS011;64454;51.984;9.838;2023-02-15T14:17:10;8.50;;;7.03;;
75820;SDS011;64454;51.984;9.838;2023-02-15T14:19:48;8.57;;;7.10;;
75820;SDS011;64454;51.984;9.838;2023-02-15T14:22:22;8.27;;;7.20;;
75820;SDS011;64454;51.984;9.838;2023-02-15T14:25:02;8.03;;;6.57;;
75820;SDS011;64454;51.984;9.838;2023-02-15T14:27:48;10.50;;;7.75;;
75820;SDS011;64454;51.984;9.838;2023-02-15T14:30:25;10.07;;;7.60;;
75820;SDS011;64454;51.984;9.838;2023-02-15T14:32:59;10.43;;;7.65;;
75820;SDS011;64454;51.984;9.838;2023-02-15T14:35:32;9.50;;;7.30;;
75820;SDS011;64454;51.984;9.838;2023-02-15T14:38:02;9.73;;;7.30;;
75820;SDS011;64454;51.984;9.838;2023-02-15T14:40:45;10.63;;;8.00;;
75820;SDS011;64454;51.984;9.838;2023-02-15T14:43:33;9.93;;;7.47;;
75820;SDS011;64454;51.984;9.838;2023-02-15T14:46:16;10.30;;;7.50;;
75820;SDS011;64454;51.984;9.838;2023-02-15T14:48:54;10.15;;;7.43;;
75820;SDS011;64454;51.984;9.838;2023-02-15T14:57:26;10.23;;;7.72;;
75820;SDS011;64454;51.984;9.838;2023-02-15T14:59:58;11.80;;;7.72;;
75820;SDS011;64454;51.984;9.838;2023-02-15T15:02:40;10.82;;;7.75;;
75820;SDS011;64454;51.984;9.838;2023-02-15T15:05:15;12.73;;;8.68;;
75820;SDS011;64454;51.984;9.838;2023-02-15T15:07:47;12.67;;;8.17;;
75820;SDS011;64454;51.984;9.838;2023-02-15T15:10:38;9.38;;;7.40;;
75820;SDS011;64454;51.984;9.838;2023-02-15T15:18:56;10.40;;;7.30;;
75820;SDS011;64454;51.984;9.838;2023-02-15T15:40:25;9.60;;;7.53;;
75820;SDS011;64454;51.984;9.838;2023-02-15T15:43:34;8.98;;;7.10;;
75820;SDS011;64454;51.984;9.838;2023-02-15T15:46:50;8.95;;;7.07;;
75820;SDS011;64454;51.984;9.838;2023-02-15T15:49:34;10.48;;;7.60;;